Startpagina
METAR-TAF:

METAR-TAF

Vliegvelden :

Flughafen Saarbrücken

Saarbrücken, Duitsland

breedte: 49-13N, lengte: 007-07E, hoogte: 322 m

Actueel weer

Dit bericht is 14 minuten geleden gemaakt, om 05:20 UTC
Wind 13 kt uit het noordoosten
Temperatuur 0°C
Vochtigheid 74%
Druk 1024 hPa
Zicht 10 km of meer
geen wolken onder 1500 m en geen cumulonimbus

METAR: EDDR 180520Z 05013KT CAVOK 00/M04 Q1024 NOSIG

Tijdstip: 06:34 (05:34 UTC)

Verwachting

Dit bericht is 6 uur en het 34 minuten geleden gemaakt, om 23:00 UTC
Verwachting geldig van 18 om 00 UTC tot 18 om 24 UTC
Wind 12 kt uit het noordoosten
Zicht 10 km of meer
geen wolken onder 1500 m en geen cumulonimbus
Kans 30% :
Tijdelijke
van 18 om 00 UTC tot 18 om 15 UTC
Wind 15 kt uit het oostnoordoosten met uitschieters tot 25 kt

TAF: EDDR 172300Z 1800/1824 05012KT CAVOK PROB30 TEMPO 1800/1815 06015G25KT

Waarnemingen en weersverwachtingen van meer dan 4000 vliegvelden (METAR en TAF).

De beschikbare stations zijn de gele en rode punten op de kaart.

Ga met uw muis naar het station om de naam te zien.

Klik dan om waarnemingen en weersverwachtingen te zien.

kaart wijzigen: klik op de groene knoppen met een zwart kruis om in te zoomen, op de groene knop met een streepje om uit te zoomen of op de groene pijlen voor aangrenzende kaarten.


METAR-TAF: